< < Back
Terminal Aerodrome Forecast


Current Version              Previous Versions:   1  2  3  4  5  6  7  8  9  

Terminal Aerodrome Forecast

348
FTUS44 KMOB 280500 RRA
TAFPNS
TAF
KPNS 280553Z 2806/2824 36009KT P6SM SKC
     FM281200 06010KT P6SM BKN015
     FM281800 06009KT P6SM BKN025 BKN250=

Latest METAR

204
SAUS70 KWBC 282300 RRN
MTRPNS
METAR KPNS 282253Z VRB05KT 10SM OVC019 15/09 A3033 RMK AO2 SLP275
T01500089


USA.gov is the U.S. government's official web portal to all federal, state and local government web resources and services.